sensor_id;sensor_type;location;lat;lon;timestamp;temperature;humidity
6244;DHT22;3155;49.940;8.450;2023-05-10T00:00:47;11.90;99.90
6244;DHT22;3155;49.940;8.450;2023-05-10T00:03:16;11.90;99.90
6244;DHT22;3155;49.940;8.450;2023-05-10T00:05:44;11.90;99.90
6244;DHT22;3155;49.940;8.450;2023-05-10T00:08:11;11.90;99.90
6244;DHT22;3155;49.940;8.450;2023-05-10T00:10:38;11.90;99.90
6244;DHT22;3155;49.940;8.450;2023-05-10T00:13:04;11.90;99.90
6244;DHT22;3155;49.940;8.450;2023-05-10T00:15:31;11.90;99.90
6244;DHT22;3155;49.940;8.450;2023-05-10T00:17:58;11.90;99.90
6244;DHT22;3155;49.940;8.450;2023-05-10T00:20:27;11.90;99.90
6244;DHT22;3155;49.940;8.450;2023-05-10T00:22:54;11.90;99.90
6244;DHT22;3155;49.940;8.450;2023-05-10T00:25:20;11.90;99.90
6244;DHT22;3155;49.940;8.450;2023-05-10T00:27:49;11.80;99.90
6244;DHT22;3155;49.940;8.450;2023-05-10T00:30:16;11.80;99.90
6244;DHT22;3155;49.940;8.450;2023-05-10T00:32:43;11.80;99.90
6244;DHT22;3155;49.940;8.450;2023-05-10T00:35:10;11.80;99.90
6244;DHT22;3155;49.940;8.450;2023-05-10T00:37:37;11.80;99.90
6244;DHT22;3155;49.940;8.450;2023-05-10T00:40:04;11.80;99.90
6244;DHT22;3155;49.940;8.450;2023-05-10T00:42:31;11.70;99.90
6244;DHT22;3155;49.940;8.450;2023-05-10T00:44:58;11.70;99.90
6244;DHT22;3155;49.940;8.450;2023-05-10T00:47:24;11.70;99.90
6244;DHT22;3155;49.940;8.450;2023-05-10T00:49:54;11.70;99.90
6244;DHT22;3155;49.940;8.450;2023-05-10T00:52:22;11.70;99.90
6244;DHT22;3155;49.940;8.450;2023-05-10T00:54:52;11.70;99.90
6244;DHT22;3155;49.940;8.450;2023-05-10T00:57:19;11.70;99.90
6244;DHT22;3155;49.940;8.450;2023-05-10T00:59:46;11.70;99.90
6244;DHT22;3155;49.940;8.450;2023-05-10T01:02:13;11.70;99.90
6244;DHT22;3155;49.940;8.450;2023-05-10T01:04:40;11.70;99.90
6244;DHT22;3155;49.940;8.450;2023-05-10T01:07:09;11.70;99.90
6244;DHT22;3155;49.940;8.450;2023-05-10T01:09:37;11.70;99.90
6244;DHT22;3155;49.940;8.450;2023-05-10T01:12:05;11.70;99.90
6244;DHT22;3155;49.940;8.450;2023-05-10T01:14:34;11.60;99.90
6244;DHT22;3155;49.940;8.450;2023-05-10T01:17:04;11.60;99.90
6244;DHT22;3155;49.940;8.450;2023-05-10T01:19:34;11.60;99.90
6244;DHT22;3155;49.940;8.450;2023-05-10T01:33:59;11.70;99.90
6244;DHT22;3155;49.940;8.450;2023-05-10T01:36:31;11.70;99.90
6244;DHT22;3155;49.940;8.450;2023-05-10T01:39:01;11.70;99.90
6244;DHT22;3155;49.940;8.450;2023-05-10T01:41:54;11.60;99.90
6244;DHT22;3155;49.940;8.450;2023-05-10T01:44:37;11.60;99.90
6244;DHT22;3155;49.940;8.450;2023-05-10T01:47:17;11.60;99.90
6244;DHT22;3155;49.940;8.450;2023-05-10T01:49:50;11.60;99.90
6244;DHT22;3155;49.940;8.450;2023-05-10T01:52:25;11.50;99.90
6244;DHT22;3155;49.940;8.450;2023-05-10T01:55:00;11.50;99.90
6244;DHT22;3155;49.940;8.450;2023-05-10T01:57:35;11.50;99.90
6244;DHT22;3155;49.940;8.450;2023-05-10T02:00:03;11.60;99.90
6244;DHT22;3155;49.940;8.450;2023-05-10T02:02:39;11.50;99.90
6244;DHT22;3155;49.940;8.450;2023-05-10T02:05:13;11.50;99.90
6244;DHT22;3155;49.940;8.450;2023-05-10T02:07:43;11.50;99.90
6244;DHT22;3155;49.940;8.450;2023-05-10T02:10:11;11.50;99.90
6244;DHT22;3155;49.940;8.450;2023-05-10T02:12:43;11.50;99.90
6244;DHT22;3155;49.940;8.450;2023-05-10T02:15:11;11.50;99.90
6244;DHT22;3155;49.940;8.450;2023-05-10T02:17:39;11.50;99.90
6244;DHT22;3155;49.940;8.450;2023-05-10T02:20:07;11.50;99.90
6244;DHT22;3155;49.940;8.450;2023-05-10T02:22:35;11.40;99.90
6244;DHT22;3155;49.940;8.450;2023-05-10T02:25:03;11.40;99.90
6244;DHT22;3155;49.940;8.450;2023-05-10T02:27:33;11.40;99.90
6244;DHT22;3155;49.940;8.450;2023-05-10T02:30:01;11.40;99.90
6244;DHT22;3155;49.940;8.450;2023-05-10T02:32:29;11.40;99.90
6244;DHT22;3155;49.940;8.450;2023-05-10T02:34:57;11.40;99.90
6244;DHT22;3155;49.940;8.450;2023-05-10T02:37:25;11.40;99.90
6244;DHT22;3155;49.940;8.450;2023-05-10T02:39:56;11.40;99.90
6244;DHT22;3155;49.940;8.450;2023-05-10T02:42:27;11.40;99.90
6244;DHT22;3155;49.940;8.450;2023-05-10T02:44:59;11.40;99.90
6244;DHT22;3155;49.940;8.450;2023-05-10T02:47:28;11.40;99.90
6244;DHT22;3155;49.940;8.450;2023-05-10T02:49:55;11.50;99.90
6244;DHT22;3155;49.940;8.450;2023-05-10T02:52:25;11.50;99.90
6244;DHT22;3155;49.940;8.450;2023-05-10T02:55:01;11.40;99.90
6244;DHT22;3155;49.940;8.450;2023-05-10T02:57:43;11.40;99.90
6244;DHT22;3155;49.940;8.450;2023-05-10T03:00:13;11.40;99.90
6244;DHT22;3155;49.940;8.450;2023-05-10T03:02:40;11.40;99.90
6244;DHT22;3155;49.940;8.450;2023-05-10T03:05:10;11.40;99.90
6244;DHT22;3155;49.940;8.450;2023-05-10T03:07:37;11.40;99.90
6244;DHT22;3155;49.940;8.450;2023-05-10T03:10:04;11.40;99.90
6244;DHT22;3155;49.940;8.450;2023-05-10T03:15:53;11.40;99.90
6244;DHT22;3155;49.940;8.450;2023-05-10T03:18:34;11.40;99.90
6244;DHT22;3155;49.940;8.450;2023-05-10T03:21:04;11.40;99.90
6244;DHT22;3155;49.940;8.450;2023-05-10T03:23:37;11.40;99.90
6244;DHT22;3155;49.940;8.450;2023-05-10T03:26:19;11.50;99.90
6244;DHT22;3155;49.940;8.450;2023-05-10T03:28:47;11.50;99.90
6244;DHT22;3155;49.940;8.450;2023-05-10T03:31:14;11.40;99.90
6244;DHT22;3155;49.940;8.450;2023-05-10T03:33:46;11.40;99.90
6244;DHT22;3155;49.940;8.450;2023-05-10T03:36:16;11.40;99.90
6244;DHT22;3155;49.940;8.450;2023-05-10T03:38:43;11.30;99.90
6244;DHT22;3155;49.940;8.450;2023-05-10T03:41:09;11.30;99.90
6244;DHT22;3155;49.940;8.450;2023-05-10T03:43:36;11.30;99.90
6244;DHT22;3155;49.940;8.450;2023-05-10T03:46:03;11.30;99.90
6244;DHT22;3155;49.940;8.450;2023-05-10T03:48:32;11.40;99.90
6244;DHT22;3155;49.940;8.450;2023-05-10T03:50:58;11.40;99.90
6244;DHT22;3155;49.940;8.450;2023-05-10T03:53:25;11.40;99.90
6244;DHT22;3155;49.940;8.450;2023-05-10T03:55:53;11.50;99.90
6244;DHT22;3155;49.940;8.450;2023-05-10T03:58:19;11.50;99.90
6244;DHT22;3155;49.940;8.450;2023-05-10T04:00:46;11.50;99.90
6244;DHT22;3155;49.940;8.450;2023-05-10T04:03:13;11.50;99.90
6244;DHT22;3155;49.940;8.450;2023-05-10T04:05:40;11.50;99.90
6244;DHT22;3155;49.940;8.450;2023-05-10T04:08:07;11.60;99.90
6244;DHT22;3155;49.940;8.450;2023-05-10T04:10:34;11.60;99.90
6244;DHT22;3155;49.940;8.450;2023-05-10T04:13:01;11.60;99.90
6244;DHT22;3155;49.940;8.450;2023-05-10T04:15:27;11.60;99.90
6244;DHT22;3155;49.940;8.450;2023-05-10T04:17:56;11.70;99.90
6244;DHT22;3155;49.940;8.450;2023-05-10T04:20:23;11.70;99.90
6244;DHT22;3155;49.940;8.450;2023-05-10T04:22:50;11.70;99.90
6244;DHT22;3155;49.940;8.450;2023-05-10T04:25:17;11.80;99.90
6244;DHT22;3155;49.940;8.450;2023-05-10T04:27:47;11.80;99.90
6244;DHT22;3155;49.940;8.450;2023-05-10T04:30:14;11.80;99.90
6244;DHT22;3155;49.940;8.450;2023-05-10T04:32:41;11.80;99.90
6244;DHT22;3155;49.940;8.450;2023-05-10T04:35:08;11.80;99.90
6244;DHT22;3155;49.940;8.450;2023-05-10T04:37:36;11.90;99.90
6244;DHT22;3155;49.940;8.450;2023-05-10T04:40:03;11.90;99.90
6244;DHT22;3155;49.940;8.450;2023-05-10T04:42:30;12.00;99.90
6244;DHT22;3155;49.940;8.450;2023-05-10T04:44:57;12.00;99.90
6244;DHT22;3155;49.940;8.450;2023-05-10T04:47:24;12.00;99.90
6244;DHT22;3155;49.940;8.450;2023-05-10T04:49:50;12.00;99.90
6244;DHT22;3155;49.940;8.450;2023-05-10T04:52:17;12.00;99.90
6244;DHT22;3155;49.940;8.450;2023-05-10T04:54:44;12.00;99.90
6244;DHT22;3155;49.940;8.450;2023-05-10T04:57:11;11.90;99.90
6244;DHT22;3155;49.940;8.450;2023-05-10T04:59:37;11.90;99.90
6244;DHT22;3155;49.940;8.450;2023-05-10T05:02:05;11.80;99.90
6244;DHT22;3155;49.940;8.450;2023-05-10T05:04:32;11.80;99.90
6244;DHT22;3155;49.940;8.450;2023-05-10T05:06:58;11.80;99.90
6244;DHT22;3155;49.940;8.450;2023-05-10T05:09:25;11.80;99.90
6244;DHT22;3155;49.940;8.450;2023-05-10T05:11:52;11.80;99.90
6244;DHT22;3155;49.940;8.450;2023-05-10T05:14:19;11.80;99.90
6244;DHT22;3155;49.940;8.450;2023-05-10T05:16:50;11.90;99.90
6244;DHT22;3155;49.940;8.450;2023-05-10T05:19:17;11.90;99.90
6244;DHT22;3155;49.940;8.450;2023-05-10T05:21:44;12.00;99.90
6244;DHT22;3155;49.940;8.450;2023-05-10T05:24:11;12.00;99.90
6244;DHT22;3155;49.940;8.450;2023-05-10T05:26:39;12.00;99.90
6244;DHT22;3155;49.940;8.450;2023-05-10T05:29:06;11.90;99.90
6244;DHT22;3155;49.940;8.450;2023-05-10T05:31:33;12.00;99.90
6244;DHT22;3155;49.940;8.450;2023-05-10T05:34:00;12.10;99.90
6244;DHT22;3155;49.940;8.450;2023-05-10T05:36:27;12.00;99.90
6244;DHT22;3155;49.940;8.450;2023-05-10T05:38:53;12.00;99.90
6244;DHT22;3155;49.940;8.450;2023-05-10T05:41:20;12.10;99.90
6244;DHT22;3155;49.940;8.450;2023-05-10T05:43:47;12.20;99.90
6244;DHT22;3155;49.940;8.450;2023-05-10T05:46:14;12.30;99.90
6244;DHT22;3155;49.940;8.450;2023-05-10T05:48:41;12.50;99.90
6244;DHT22;3155;49.940;8.450;2023-05-10T05:51:08;12.60;99.90
6244;DHT22;3155;49.940;8.450;2023-05-10T05:53:35;12.80;99.90
6244;DHT22;3155;49.940;8.450;2023-05-10T05:56:02;12.90;99.90
6244;DHT22;3155;49.940;8.450;2023-05-10T05:58:29;13.10;99.90
6244;DHT22;3155;49.940;8.450;2023-05-10T06:00:55;13.30;99.90
6244;DHT22;3155;49.940;8.450;2023-05-10T06:03:24;13.50;99.90
6244;DHT22;3155;49.940;8.450;2023-05-10T06:05:52;13.60;99.90
6244;DHT22;3155;49.940;8.450;2023-05-10T06:08:19;13.60;99.90
6244;DHT22;3155;49.940;8.450;2023-05-10T06:10:45;13.60;99.90
6244;DHT22;3155;49.940;8.450;2023-05-10T06:13:12;13.80;99.90
6244;DHT22;3155;49.940;8.450;2023-05-10T06:15:39;13.90;99.90
6244;DHT22;3155;49.940;8.450;2023-05-10T06:18:06;14.10;99.90
6244;DHT22;3155;49.940;8.450;2023-05-10T06:20:32;14.00;99.90
6244;DHT22;3155;49.940;8.450;2023-05-10T06:22:59;14.00;99.90
6244;DHT22;3155;49.940;8.450;2023-05-10T06:25:26;14.00;99.90
6244;DHT22;3155;49.940;8.450;2023-05-10T06:27:53;14.00;99.90
6244;DHT22;3155;49.940;8.450;2023-05-10T06:30:26;13.80;99.90
6244;DHT22;3155;49.940;8.450;2023-05-10T06:32:55;13.80;99.90
6244;DHT22;3155;49.940;8.450;2023-05-10T06:35:22;14.00;99.90
6244;DHT22;3155;49.940;8.450;2023-05-10T06:37:49;14.00;99.90
6244;DHT22;3155;49.940;8.450;2023-05-10T06:40:16;14.20;99.90
6244;DHT22;3155;49.940;8.450;2023-05-10T06:42:43;14.50;99.90
6244;DHT22;3155;49.940;8.450;2023-05-10T06:45:11;14.70;99.90
6244;DHT22;3155;49.940;8.450;2023-05-10T06:47:39;14.80;99.90
6244;DHT22;3155;49.940;8.450;2023-05-10T06:50:10;14.90;99.90
6244;DHT22;3155;49.940;8.450;2023-05-10T06:52:41;14.50;99.90
6244;DHT22;3155;49.940;8.450;2023-05-10T06:55:10;14.30;99.90
6244;DHT22;3155;49.940;8.450;2023-05-10T06:57:37;14.30;99.90
6244;DHT22;3155;49.940;8.450;2023-05-10T07:00:06;14.10;99.90
6244;DHT22;3155;49.940;8.450;2023-05-10T07:02:33;14.10;99.90
6244;DHT22;3155;49.940;8.450;2023-05-10T07:05:00;14.10;99.90
6244;DHT22;3155;49.940;8.450;2023-05-10T07:07:29;14.10;99.90
6244;DHT22;3155;49.940;8.450;2023-05-10T07:09:58;14.40;99.90
6244;DHT22;3155;49.940;8.450;2023-05-10T07:12:25;14.50;99.90
6244;DHT22;3155;49.940;8.450;2023-05-10T07:14:52;14.80;99.90
6244;DHT22;3155;49.940;8.450;2023-05-10T07:17:21;15.00;99.90
6244;DHT22;3155;49.940;8.450;2023-05-10T07:19:48;15.00;99.90
6244;DHT22;3155;49.940;8.450;2023-05-10T07:22:15;15.20;99.90
6244;DHT22;3155;49.940;8.450;2023-05-10T07:24:43;15.60;99.90
6244;DHT22;3155;49.940;8.450;2023-05-10T07:27:10;15.80;99.90
6244;DHT22;3155;49.940;8.450;2023-05-10T07:29:37;16.10;99.90
6244;DHT22;3155;49.940;8.450;2023-05-10T07:32:04;16.70;99.90
6244;DHT22;3155;49.940;8.450;2023-05-10T07:34:31;16.70;99.90
6244;DHT22;3155;49.940;8.450;2023-05-10T07:36:58;17.10;99.90
6244;DHT22;3155;49.940;8.450;2023-05-10T07:39:26;17.20;99.90
6244;DHT22;3155;49.940;8.450;2023-05-10T07:41:54;17.10;99.90
6244;DHT22;3155;49.940;8.450;2023-05-10T07:44:22;17.00;99.90
6244;DHT22;3155;49.940;8.450;2023-05-10T07:46:49;16.90;99.90
6244;DHT22;3155;49.940;8.450;2023-05-10T07:49:16;16.50;99.90
6244;DHT22;3155;49.940;8.450;2023-05-10T07:51:43;16.20;99.90
6244;DHT22;3155;49.940;8.450;2023-05-10T07:54:10;16.30;99.90
6244;DHT22;3155;49.940;8.450;2023-05-10T07:56:37;16.40;99.90
6244;DHT22;3155;49.940;8.450;2023-05-10T07:59:03;16.60;99.90
6244;DHT22;3155;49.940;8.450;2023-05-10T08:01:32;16.80;99.90
6244;DHT22;3155;49.940;8.450;2023-05-10T08:04:02;17.00;99.90
6244;DHT22;3155;49.940;8.450;2023-05-10T08:06:29;17.20;99.90
6244;DHT22;3155;49.940;8.450;2023-05-10T08:08:56;17.50;99.90
6244;DHT22;3155;49.940;8.450;2023-05-10T08:11:23;17.50;99.90
6244;DHT22;3155;49.940;8.450;2023-05-10T08:13:50;17.60;99.90
6244;DHT22;3155;49.940;8.450;2023-05-10T08:16:17;17.50;99.90
6244;DHT22;3155;49.940;8.450;2023-05-10T08:18:45;17.40;99.90
6244;DHT22;3155;49.940;8.450;2023-05-10T08:21:13;17.30;99.90
6244;DHT22;3155;49.940;8.450;2023-05-10T08:23:41;17.10;99.90
6244;DHT22;3155;49.940;8.450;2023-05-10T08:26:08;17.00;99.90
6244;DHT22;3155;49.940;8.450;2023-05-10T08:28:34;16.80;99.90
6244;DHT22;3155;49.940;8.450;2023-05-10T08:31:01;16.60;99.90
6244;DHT22;3155;49.940;8.450;2023-05-10T08:33:28;16.60;99.90
6244;DHT22;3155;49.940;8.450;2023-05-10T08:35:54;16.40;99.90
6244;DHT22;3155;49.940;8.450;2023-05-10T08:38:23;16.30;99.90
6244;DHT22;3155;49.940;8.450;2023-05-10T08:40:54;16.10;99.90
6244;DHT22;3155;49.940;8.450;2023-05-10T08:43:29;16.00;99.90
6244;DHT22;3155;49.940;8.450;2023-05-10T08:45:58;15.80;99.90
6244;DHT22;3155;49.940;8.450;2023-05-10T08:48:27;15.40;99.90
6244;DHT22;3155;49.940;8.450;2023-05-10T08:50:58;15.00;99.90
6244;DHT22;3155;49.940;8.450;2023-05-10T08:53:27;14.60;99.90
6244;DHT22;3155;49.940;8.450;2023-05-10T08:55:55;14.30;99.90
6244;DHT22;3155;49.940;8.450;2023-05-10T08:58:22;14.00;99.90
6244;DHT22;3155;49.940;8.450;2023-05-10T09:00:49;13.80;99.90
6244;DHT22;3155;49.940;8.450;2023-05-10T09:03:19;13.60;99.90
6244;DHT22;3155;49.940;8.450;2023-05-10T09:05:47;13.60;99.90
6244;DHT22;3155;49.940;8.450;2023-05-10T09:08:17;13.70;99.90
6244;DHT22;3155;49.940;8.450;2023-05-10T09:10:44;13.80;99.90
6244;DHT22;3155;49.940;8.450;2023-05-10T09:13:14;14.10;99.90
6244;DHT22;3155;49.940;8.450;2023-05-10T09:15:43;14.40;99.90
6244;DHT22;3155;49.940;8.450;2023-05-10T09:18:10;15.00;99.90
6244;DHT22;3155;49.940;8.450;2023-05-10T09:20:37;15.20;99.90
6244;DHT22;3155;49.940;8.450;2023-05-10T09:23:04;15.40;99.90
6244;DHT22;3155;49.940;8.450;2023-05-10T09:25:32;15.40;99.90
6244;DHT22;3155;49.940;8.450;2023-05-10T09:28:01;15.30;99.90
6244;DHT22;3155;49.940;8.450;2023-05-10T09:30:31;15.10;99.90
6244;DHT22;3155;49.940;8.450;2023-05-10T09:32:59;14.80;99.90
6244;DHT22;3155;49.940;8.450;2023-05-10T09:35:27;14.80;99.90
6244;DHT22;3155;49.940;8.450;2023-05-10T09:38:01;14.80;99.90
6244;DHT22;3155;49.940;8.450;2023-05-10T09:40:29;14.90;99.90
6244;DHT22;3155;49.940;8.450;2023-05-10T09:42:57;15.10;99.90
6244;DHT22;3155;49.940;8.450;2023-05-10T09:45:27;15.60;99.90
6244;DHT22;3155;49.940;8.450;2023-05-10T09:47:54;16.40;99.90
6244;DHT22;3155;49.940;8.450;2023-05-10T09:50:22;17.00;99.90
6244;DHT22;3155;49.940;8.450;2023-05-10T09:55:22;17.80;99.90
6244;DHT22;3155;49.940;8.450;2023-05-10T09:57:57;18.30;99.90
6244;DHT22;3155;49.940;8.450;2023-05-10T10:00:25;18.30;99.90
6244;DHT22;3155;49.940;8.450;2023-05-10T10:02:57;18.60;99.90
6244;DHT22;3155;49.940;8.450;2023-05-10T10:05:32;18.80;99.90
6244;DHT22;3155;49.940;8.450;2023-05-10T10:08:02;19.00;99.90
6244;DHT22;3155;49.940;8.450;2023-05-10T10:10:32;19.30;99.90
6244;DHT22;3155;49.940;8.450;2023-05-10T10:12:59;19.70;99.90
6244;DHT22;3155;49.940;8.450;2023-05-10T10:15:26;20.00;99.90
6244;DHT22;3155;49.940;8.450;2023-05-10T10:17:54;20.40;99.90
6244;DHT22;3155;49.940;8.450;2023-05-10T10:20:22;20.50;99.90
6244;DHT22;3155;49.940;8.450;2023-05-10T10:22:52;20.10;99.90
6244;DHT22;3155;49.940;8.450;2023-05-10T10:25:20;19.90;99.90
6244;DHT22;3155;49.940;8.450;2023-05-10T10:30:41;18.90;99.90
6244;DHT22;3155;49.940;8.450;2023-05-10T10:33:33;18.50;99.90
6244;DHT22;3155;49.940;8.450;2023-05-10T10:36:03;18.10;99.90
6244;DHT22;3155;49.940;8.450;2023-05-10T10:41:10;17.70;99.90
6244;DHT22;3155;49.940;8.450;2023-05-10T10:43:37;17.70;99.90
6244;DHT22;3155;49.940;8.450;2023-05-10T10:46:15;17.60;99.90
6244;DHT22;3155;49.940;8.450;2023-05-10T10:49:09;17.50;99.90
6244;DHT22;3155;49.940;8.450;2023-05-10T10:51:39;17.50;99.90
6244;DHT22;3155;49.940;8.450;2023-05-10T10:54:10;17.70;99.90
6244;DHT22;3155;49.940;8.450;2023-05-10T10:56:36;17.70;99.90
6244;DHT22;3155;49.940;8.450;2023-05-10T10:59:04;17.80;99.90
6244;DHT22;3155;49.940;8.450;2023-05-10T11:01:34;17.70;99.90
6244;DHT22;3155;49.940;8.450;2023-05-10T11:06:31;18.00;99.90
6244;DHT22;3155;49.940;8.450;2023-05-10T11:08:59;17.90;99.90
6244;DHT22;3155;49.940;8.450;2023-05-10T11:11:29;17.90;99.90
6244;DHT22;3155;49.940;8.450;2023-05-10T11:14:06;18.60;99.90
6244;DHT22;3155;49.940;8.450;2023-05-10T11:16:43;19.60;99.90
6244;DHT22;3155;49.940;8.450;2023-05-10T11:19:12;20.30;99.90
6244;DHT22;3155;49.940;8.450;2023-05-10T11:24:18;20.40;99.90
6244;DHT22;3155;49.940;8.450;2023-05-10T11:27:02;20.40;99.90
6244;DHT22;3155;49.940;8.450;2023-05-10T11:29:29;20.40;99.90
6244;DHT22;3155;49.940;8.450;2023-05-10T11:31:58;20.20;99.90
6244;DHT22;3155;49.940;8.450;2023-05-10T11:34:27;20.30;99.90
6244;DHT22;3155;49.940;8.450;2023-05-10T11:36:55;20.30;99.90
6244;DHT22;3155;49.940;8.450;2023-05-10T11:39:32;20.50;99.90
6244;DHT22;3155;49.940;8.450;2023-05-10T11:42:00;20.80;99.90
6244;DHT22;3155;49.940;8.450;2023-05-10T11:44:33;20.90;99.90
6244;DHT22;3155;49.940;8.450;2023-05-10T11:47:06;21.10;99.90
6244;DHT22;3155;49.940;8.450;2023-05-10T11:49:33;21.60;99.90
6244;DHT22;3155;49.940;8.450;2023-05-10T11:52:14;21.90;99.90
6244;DHT22;3155;49.940;8.450;2023-05-10T11:54:53;22.30;99.90
6244;DHT22;3155;49.940;8.450;2023-05-10T11:57:25;23.30;99.90
6244;DHT22;3155;49.940;8.450;2023-05-10T11:59:57;23.50;99.90
6244;DHT22;3155;49.940;8.450;2023-05-10T12:02:24;23.50;99.90
6244;DHT22;3155;49.940;8.450;2023-05-10T12:04:51;23.40;99.90
6244;DHT22;3155;49.940;8.450;2023-05-10T12:07:18;23.40;99.90
6244;DHT22;3155;49.940;8.450;2023-05-10T12:10:01;23.20;99.90
6244;DHT22;3155;49.940;8.450;2023-05-10T12:12:39;23.00;99.90
6244;DHT22;3155;49.940;8.450;2023-05-10T12:15:11;23.00;99.90
6244;DHT22;3155;49.940;8.450;2023-05-10T12:17:38;23.40;99.90
6244;DHT22;3155;49.940;8.450;2023-05-10T12:20:17;23.80;99.80
6244;DHT22;3155;49.940;8.450;2023-05-10T12:22:55;23.70;98.70
6244;DHT22;3155;49.940;8.450;2023-05-10T12:25:35;23.70;98.30
6244;DHT22;3155;49.940;8.450;2023-05-10T12:28:07;23.80;98.90
6244;DHT22;3155;49.940;8.450;2023-05-10T12:30:35;23.90;98.50
6244;DHT22;3155;49.940;8.450;2023-05-10T12:33:13;24.40;98.70
6244;DHT22;3155;49.940;8.450;2023-05-10T12:35:51;24.20;98.00
6244;DHT22;3155;49.940;8.450;2023-05-10T12:38:38;24.40;96.80
6244;DHT22;3155;49.940;8.450;2023-05-10T12:41:07;23.90;97.10
6244;DHT22;3155;49.940;8.450;2023-05-10T12:43:35;23.30;97.20
6244;DHT22;3155;49.940;8.450;2023-05-10T12:48:36;23.30;98.20
6244;DHT22;3155;49.940;8.450;2023-05-10T12:51:05;22.90;97.80
6244;DHT22;3155;49.940;8.450;2023-05-10T12:53:31;22.50;97.90
6244;DHT22;3155;49.940;8.450;2023-05-10T12:55:58;22.00;98.20
6244;DHT22;3155;49.940;8.450;2023-05-10T12:58:25;21.60;98.80
6244;DHT22;3155;49.940;8.450;2023-05-10T13:01:02;21.50;98.80
6244;DHT22;3155;49.940;8.450;2023-05-10T13:03:29;21.80;99.20
6244;DHT22;3155;49.940;8.450;2023-05-10T13:05:55;22.10;98.20
6244;DHT22;3155;49.940;8.450;2023-05-10T13:08:22;22.20;98.10
6244;DHT22;3155;49.940;8.450;2023-05-10T13:10:49;22.40;98.00
6244;DHT22;3155;49.940;8.450;2023-05-10T13:13:16;22.70;98.40
6244;DHT22;3155;49.940;8.450;2023-05-10T13:15:42;22.80;98.40
6244;DHT22;3155;49.940;8.450;2023-05-10T13:18:09;22.60;97.60
6244;DHT22;3155;49.940;8.450;2023-05-10T13:20:36;22.00;97.70
6244;DHT22;3155;49.940;8.450;2023-05-10T13:23:03;21.60;98.80
6244;DHT22;3155;49.940;8.450;2023-05-10T13:25:30;21.40;99.10
6244;DHT22;3155;49.940;8.450;2023-05-10T13:27:57;20.90;98.90
6244;DHT22;3155;49.940;8.450;2023-05-10T13:30:23;20.80;99.70
6244;DHT22;3155;49.940;8.450;2023-05-10T13:32:50;20.80;99.90
6244;DHT22;3155;49.940;8.450;2023-05-10T13:35:17;21.00;99.90
6244;DHT22;3155;49.940;8.450;2023-05-10T13:37:46;21.30;99.90
6244;DHT22;3155;49.940;8.450;2023-05-10T13:40:13;21.80;99.90
6244;DHT22;3155;49.940;8.450;2023-05-10T13:42:42;22.60;99.50
6244;DHT22;3155;49.940;8.450;2023-05-10T13:45:09;23.00;98.10
6244;DHT22;3155;49.940;8.450;2023-05-10T13:47:38;23.20;98.30
6244;DHT22;3155;49.940;8.450;2023-05-10T13:50:08;23.70;97.80
6244;DHT22;3155;49.940;8.450;2023-05-10T13:52:35;24.00;97.90
6244;DHT22;3155;49.940;8.450;2023-05-10T13:55:02;24.60;97.30
6244;DHT22;3155;49.940;8.450;2023-05-10T13:57:29;24.60;95.50
6244;DHT22;3155;49.940;8.450;2023-05-10T13:59:56;24.50;95.50
6244;DHT22;3155;49.940;8.450;2023-05-10T14:02:23;24.30;95.70
6244;DHT22;3155;49.940;8.450;2023-05-10T14:04:51;24.10;94.80
6244;DHT22;3155;49.940;8.450;2023-05-10T14:07:18;24.10;95.50
6244;DHT22;3155;49.940;8.450;2023-05-10T14:09:45;24.20;96.20
6244;DHT22;3155;49.940;8.450;2023-05-10T14:12:12;24.50;95.80
6244;DHT22;3155;49.940;8.450;2023-05-10T14:14:40;24.70;95.20
6244;DHT22;3155;49.940;8.450;2023-05-10T14:17:07;24.60;94.90
6244;DHT22;3155;49.940;8.450;2023-05-10T14:19:37;23.90;94.60
6244;DHT22;3155;49.940;8.450;2023-05-10T14:22:05;23.20;95.10
6244;DHT22;3155;49.940;8.450;2023-05-10T14:24:32;22.80;96.00
6244;DHT22;3155;49.940;8.450;2023-05-10T14:27:02;22.30;96.40
6244;DHT22;3155;49.940;8.450;2023-05-10T14:29:28;21.80;97.00
6244;DHT22;3155;49.940;8.450;2023-05-10T14:31:55;21.50;98.20
6244;DHT22;3155;49.940;8.450;2023-05-10T14:34:22;21.40;97.20
6244;DHT22;3155;49.940;8.450;2023-05-10T14:36:49;21.70;97.80
6244;DHT22;3155;49.940;8.450;2023-05-10T14:39:16;22.00;98.10
6244;DHT22;3155;49.940;8.450;2023-05-10T14:41:43;21.90;97.80
6244;DHT22;3155;49.940;8.450;2023-05-10T14:44:11;21.80;97.90
6244;DHT22;3155;49.940;8.450;2023-05-10T14:46:38;21.50;97.90
6244;DHT22;3155;49.940;8.450;2023-05-10T14:49:05;21.20;97.30
6244;DHT22;3155;49.940;8.450;2023-05-10T14:51:32;20.80;98.10
6244;DHT22;3155;49.940;8.450;2023-05-10T14:53:59;20.70;99.00
6244;DHT22;3155;49.940;8.450;2023-05-10T14:56:26;20.70;99.00
6244;DHT22;3155;49.940;8.450;2023-05-10T14:58:57;20.50;98.60
6244;DHT22;3155;49.940;8.450;2023-05-10T15:01:24;20.60;99.00
6244;DHT22;3155;49.940;8.450;2023-05-10T15:03:58;20.70;99.70
6244;DHT22;3155;49.940;8.450;2023-05-10T15:06:30;21.00;99.80
6244;DHT22;3155;49.940;8.450;2023-05-10T15:08:58;21.20;99.90
6244;DHT22;3155;49.940;8.450;2023-05-10T15:11:24;21.00;99.50
6244;DHT22;3155;49.940;8.450;2023-05-10T15:13:51;21.00;99.80
6244;DHT22;3155;49.940;8.450;2023-05-10T15:16:18;20.70;99.90
6244;DHT22;3155;49.940;8.450;2023-05-10T15:18:45;20.20;99.90
6244;DHT22;3155;49.940;8.450;2023-05-10T15:21:12;20.00;99.90
6244;DHT22;3155;49.940;8.450;2023-05-10T15:23:39;19.80;99.90
6244;DHT22;3155;49.940;8.450;2023-05-10T15:26:05;19.60;99.90
6244;DHT22;3155;49.940;8.450;2023-05-10T15:28:32;19.40;99.90
6244;DHT22;3155;49.940;8.450;2023-05-10T15:31:00;19.30;99.90
6244;DHT22;3155;49.940;8.450;2023-05-10T15:33:27;19.10;99.90
6244;DHT22;3155;49.940;8.450;2023-05-10T15:35:54;18.80;99.90
6244;DHT22;3155;49.940;8.450;2023-05-10T15:38:24;18.70;99.90
6244;DHT22;3155;49.940;8.450;2023-05-10T15:40:50;18.70;99.90
6244;DHT22;3155;49.940;8.450;2023-05-10T15:43:17;18.80;99.90
6244;DHT22;3155;49.940;8.450;2023-05-10T15:45:44;19.10;99.90
6244;DHT22;3155;49.940;8.450;2023-05-10T15:48:11;19.30;99.90
6244;DHT22;3155;49.940;8.450;2023-05-10T15:50:37;19.50;99.90
6244;DHT22;3155;49.940;8.450;2023-05-10T15:53:06;19.50;99.90
6244;DHT22;3155;49.940;8.450;2023-05-10T15:55:33;19.60;99.90
6244;DHT22;3155;49.940;8.450;2023-05-10T15:58:00;19.70;99.90
6244;DHT22;3155;49.940;8.450;2023-05-10T16:00:28;19.70;99.90
6244;DHT22;3155;49.940;8.450;2023-05-10T16:02:55;19.60;99.90
6244;DHT22;3155;49.940;8.450;2023-05-10T16:05:23;19.70;99.90
6244;DHT22;3155;49.940;8.450;2023-05-10T16:07:50;19.80;99.90
6244;DHT22;3155;49.940;8.450;2023-05-10T16:10:20;19.80;99.90
6244;DHT22;3155;49.940;8.450;2023-05-10T16:12:47;19.60;99.90
6244;DHT22;3155;49.940;8.450;2023-05-10T16:15:14;19.90;99.90
6244;DHT22;3155;49.940;8.450;2023-05-10T16:17:42;20.00;99.90
6244;DHT22;3155;49.940;8.450;2023-05-10T16:20:09;20.10;99.90
6244;DHT22;3155;49.940;8.450;2023-05-10T16:22:36;20.10;99.90
6244;DHT22;3155;49.940;8.450;2023-05-10T16:25:03;20.10;99.80
6244;DHT22;3155;49.940;8.450;2023-05-10T16:27:32;20.10;99.90
6244;DHT22;3155;49.940;8.450;2023-05-10T16:29:59;20.10;99.30
6244;DHT22;3155;49.940;8.450;2023-05-10T16:32:26;20.20;99.60
6244;DHT22;3155;49.940;8.450;2023-05-10T16:34:53;20.20;98.50
6244;DHT22;3155;49.940;8.450;2023-05-10T16:37:20;20.20;98.30
6244;DHT22;3155;49.940;8.450;2023-05-10T16:39:46;20.40;98.30
6244;DHT22;3155;49.940;8.450;2023-05-10T16:42:13;20.60;98.60